Time;durP1;ratioP1;P1;durP2;ratioP2;P2;SDS_P1;SDS_P2;PMS_P1;PMS_P2;Temp;Humidity;BMP_temperature;BMP_pressure;BME280_temperature;BME280_humidity;BME280_pressure;Samples;Min_cycle;Max_cycle;Signal;HPM_P1;HPM_P2
2023/01/09 00:02:09;;;;;;;11.52;3.70;;;6.50;99.90;;;;;;5014889;28;20049;-84
2023/01/09 00:04:36;;;;;;;7.78;3.10;;;6.50;99.90;;;;;;5014471;28;20046;-86
2023/01/09 00:07:01;;;;;;;8.52;3.83;;;6.50;99.90;;;;;;4998368;28;20046;-85
2023/01/09 00:09:27;;;;;;;13.32;4.60;;;6.60;99.90;;;;;;5014612;28;20477;-84
2023/01/09 00:11:56;;;;;;;14.68;3.83;;;6.60;99.90;;;;;;5014521;28;20054;-85
2023/01/09 00:14:22;;;;;;;17.63;4.18;;;6.60;99.90;;;;;;5014555;28;20433;-85
2023/01/09 00:16:48;;;;;;;9.65;4.20;;;6.60;99.90;;;;;;5014276;28;20048;-85
2023/01/09 00:19:14;;;;;;;10.77;4.75;;;6.70;99.90;;;;;;5014558;28;20132;-85
2023/01/09 00:21:40;;;;;;;8.73;4.10;;;6.60;99.90;;;;;;5014041;28;20418;-85
2023/01/09 00:24:08;;;;;;;10.20;4.22;;;6.80;99.90;;;;;;5013742;28;20050;-86
2023/01/09 00:26:34;;;;;;;14.27;4.35;;;6.80;99.90;;;;;;5014134;28;20084;-86
2023/01/09 00:29:00;;;;;;;11.75;4.68;;;6.70;99.90;;;;;;5014131;28;20076;-86
2023/01/09 00:31:26;;;;;;;10.15;3.85;;;6.80;99.90;;;;;;5014049;28;20397;-86
2023/01/09 00:33:58;;;;;;;9.32;4.13;;;6.80;99.90;;;;;;5013795;28;20050;-86
2023/01/09 00:36:24;;;;;;;10.75;4.47;;;6.80;99.90;;;;;;5013834;28;20073;-86
2023/01/09 00:38:51;;;;;;;13.88;4.63;;;6.80;99.90;;;;;;5013833;28;20073;-86
2023/01/09 00:41:21;;;;;;;11.50;4.82;;;6.80;99.90;;;;;;5013842;28;20049;-86
2023/01/09 00:43:52;;;;;;;12.27;4.63;;;6.80;99.90;;;;;;5013870;28;20050;-86
2023/01/09 00:46:21;;;;;;;11.65;4.43;;;6.80;99.90;;;;;;5013783;28;20469;-86
2023/01/09 00:48:48;;;;;;;8.93;4.72;;;6.80;99.90;;;;;;5013557;28;20042;-86
2023/01/09 00:51:14;;;;;;;15.68;5.45;;;6.80;99.90;;;;;;5013887;28;20073;-86
2023/01/09 00:53:42;;;;;;;13.38;5.50;;;6.90;99.90;;;;;;5013540;28;20120;-86
2023/01/09 00:56:12;;;;;;;12.75;5.22;;;6.90;99.90;;;;;;5013855;28;20049;-86
2023/01/09 00:58:38;;;;;;;11.77;5.03;;;6.90;99.90;;;;;;5013640;28;20038;-86
2023/01/09 01:01:04;;;;;;;10.10;4.28;;;6.90;99.90;;;;;;5013592;28;20169;-86
2023/01/09 01:03:29;;;;;;;12.25;4.75;;;6.90;99.90;;;;;;5013549;28;20037;-85
2023/01/09 01:08:39;;;;;;;12.73;4.85;;;7.00;99.90;;;;;;5013629;28;20052;-86
2023/01/09 01:11:11;;;;;;;11.90;4.50;;;6.90;99.90;;;;;;5013259;28;20049;-85
2023/01/09 01:13:38;;;;;;;11.50;4.82;;;7.00;99.90;;;;;;5013202;28;20038;-85
2023/01/09 01:16:08;;;;;;;10.63;4.05;;;7.00;99.90;;;;;;5013094;28;20037;-85
2023/01/09 01:18:34;;;;;;;11.98;4.18;;;7.10;99.90;;;;;;5013203;28;20482;-85
2023/01/09 01:21:04;;;;;;;12.85;4.75;;;7.00;99.90;;;;;;5013408;28;20049;-85
2023/01/09 01:23:29;;;;;;;8.82;4.25;;;7.10;99.90;;;;;;5012857;28;20103;-85
2023/01/09 01:25:55;;;;;;;15.23;4.68;;;7.00;99.90;;;;;;5012923;28;20046;-85
2023/01/09 01:28:21;;;;;;;10.20;4.45;;;7.00;99.90;;;;;;5012908;28;20075;-85
2023/01/09 01:30:46;;;;;;;13.85;5.15;;;7.00;99.90;;;;;;5012897;28;20045;-85
2023/01/09 01:33:12;;;;;;;9.38;4.38;;;7.00;99.90;;;;;;5002959;28;20049;-85
2023/01/09 01:35:37;;;;;;;18.23;4.88;;;7.00;99.90;;;;;;4993318;28;20066;-85
2023/01/09 01:38:03;;;;;;;12.85;4.47;;;7.10;99.90;;;;;;4994665;28;20096;-85
2023/01/09 01:40:29;;;;;;;10.93;4.32;;;7.10;99.90;;;;;;4993382;28;20367;-85
2023/01/09 01:42:55;;;;;;;17.55;4.65;;;6.90;99.90;;;;;;4993062;28;20453;-85
2023/01/09 01:45:23;;;;;;;15.48;5.65;;;7.00;99.90;;;;;;4993388;28;20050;-85
2023/01/09 01:48:00;;;;;;;14.50;4.35;;;7.00;99.90;;;;;;4994466;28;20129;-85
2023/01/09 01:50:28;;;;;;;16.17;4.28;;;7.00;99.90;;;;;;4993197;28;20080;-85
2023/01/09 01:53:15;;;;;;;16.17;5.60;;;7.00;99.90;;;;;;4993067;28;20038;-85
2023/01/09 01:55:52;;;;;;;18.48;4.43;;;7.00;99.90;;;;;;4993266;28;20050;-84
2023/01/09 01:58:19;;;;;;;11.48;4.53;;;7.00;99.90;;;;;;4993311;28;20050;-85
2023/01/09 02:00:46;;;;;;;13.02;5.40;;;6.90;99.90;;;;;;4993089;28;20054;-85
2023/01/09 02:03:16;;;;;;;17.17;5.72;;;6.80;99.90;;;;;;4993269;28;20515;-85
2023/01/09 02:05:43;;;;;;;17.15;4.95;;;6.80;99.90;;;;;;4992877;28;20074;-86
2023/01/09 02:08:09;;;;;;;19.02;4.88;;;6.90;99.90;;;;;;4992886;28;20050;-86
2023/01/09 02:10:37;;;;;;;13.07;4.60;;;6.80;99.90;;;;;;4992967;28;20042;-86
2023/01/09 02:13:05;;;;;;;12.18;4.47;;;6.70;99.90;;;;;;4992980;28;20437;-86
2023/01/09 02:15:44;;;;;;;17.52;4.40;;;6.70;99.90;;;;;;4994197;28;20391;-85
2023/01/09 02:18:17;;;;;;;12.27;4.28;;;6.70;99.90;;;;;;4993323;28;20053;-85
2023/01/09 02:21:04;;;;;;;16.02;4.78;;;6.70;99.90;;;;;;4997114;28;20054;-85
2023/01/09 02:24:06;;;;;;;16.70;4.72;;;6.70;99.90;;;;;;4997973;28;20060;-85
2023/01/09 02:26:53;;;;;;;14.48;4.63;;;6.70;99.90;;;;;;4996643;28;20057;-85
2023/01/09 02:29:39;;;;;;;12.85;3.88;;;6.60;99.90;;;;;;4996719;28;20132;-85
2023/01/09 02:32:56;;;;;;;15.98;4.03;;;6.60;99.90;;;;;;4996475;28;20093;-85
2023/01/09 02:35:40;;;;;;;18.27;5.35;;;6.50;99.90;;;;;;4963924;28;20057;-85
2023/01/09 02:38:35;;;;;;;14.95;4.45;;;6.60;99.90;;;;;;4996532;28;20082;-85
2023/01/09 02:41:07;;;;;;;17.02;4.38;;;6.60;99.90;;;;;;4996630;28;20585;-85
2023/01/09 02:43:33;;;;;;;21.63;4.35;;;6.50;99.90;;;;;;4996328;28;20487;-85
2023/01/09 02:45:58;;;;;;;13.48;3.97;;;6.40;99.90;;;;;;4996725;28;20054;-85
2023/01/09 02:48:24;;;;;;;18.92;4.60;;;6.40;99.90;;;;;;4997569;28;20046;-85
2023/01/09 02:50:54;;;;;;;19.40;4.63;;;6.40;99.90;;;;;;4996293;28;20050;-85
2023/01/09 02:53:38;;;;;;;14.77;4.40;;;6.30;99.90;;;;;;4996365;28;20528;-85
2023/01/09 02:56:27;;;;;;;16.52;4.70;;;6.30;99.90;;;;;;4996166;28;20125;-85
2023/01/09 02:59:14;;;;;;;18.77;4.10;;;6.20;99.90;;;;;;4996491;28;20058;-85
2023/01/09 03:02:11;;;;;;;14.98;3.88;;;6.20;99.90;;;;;;4996134;28;20061;-85
2023/01/09 03:04:55;;;;;;;20.67;4.65;;;6.20;99.90;;;;;;4996018;28;20498;-85
2023/01/09 03:08:01;;;;;;;11.88;4.40;;;6.20;99.90;;;;;;4996308;28;20455;-85
2023/01/09 03:10:44;;;;;;;19.95;3.67;;;6.20;99.90;;;;;;4992153;28;20193;-85
2023/01/09 03:13:14;;;;;;;11.90;4.80;;;6.10;99.90;;;;;;4995974;28;20398;-85
2023/01/09 03:15:43;;;;;;;18.17;5.18;;;6.10;99.90;;;;;;4995876;28;20093;-85
2023/01/09 03:18:12;;;;;;;13.75;4.57;;;6.00;99.90;;;;;;4995694;28;20050;-84
2023/01/09 03:20:39;;;;;;;14.85;4.82;;;6.00;99.90;;;;;;4995626;28;20048;-85
2023/01/09 03:23:07;;;;;;;18.05;4.97;;;5.90;99.90;;;;;;4995347;28;20069;-85
2023/01/09 03:25:33;;;;;;;18.77;4.88;;;6.10;99.90;;;;;;4995645;28;20050;-85
2023/01/09 03:28:05;;;;;;;20.08;6.50;;;6.10;99.90;;;;;;4997093;28;20042;-85
2023/01/09 03:30:32;;;;;;;19.08;5.05;;;5.90;99.90;;;;;;4995739;28;20050;-85
2023/01/09 03:32:58;;;;;;;14.05;4.38;;;6.00;99.90;;;;;;4996048;28;20047;-85
2023/01/09 03:35:25;;;;;;;22.40;6.28;;;5.90;99.90;;;;;;4995624;28;20046;-85
2023/01/09 03:37:50;;;;;;;21.67;4.57;;;5.90;99.90;;;;;;4995673;28;20035;-85
2023/01/09 03:40:17;;;;;;;19.70;6.90;;;5.80;99.90;;;;;;4995582;28;20050;-85
2023/01/09 03:42:43;;;;;;;17.40;4.95;;;6.00;99.90;;;;;;4995407;28;20389;-85
2023/01/09 03:45:09;;;;;;;20.15;6.20;;;5.80;99.90;;;;;;4995600;28;20137;-85
2023/01/09 03:47:35;;;;;;;23.08;6.30;;;5.80;99.90;;;;;;4995566;28;20390;-84
2023/01/09 03:50:00;;;;;;;18.58;5.72;;;5.90;99.90;;;;;;4995384;28;20049;-85
2023/01/09 03:52:26;;;;;;;20.05;6.00;;;5.90;99.90;;;;;;4995051;28;20442;-85
2023/01/09 03:54:51;;;;;;;14.25;5.72;;;5.70;99.90;;;;;;4995438;28;20054;-85
2023/01/09 03:57:17;;;;;;;16.60;4.45;;;5.70;99.90;;;;;;4995010;28;20544;-85
2023/01/09 03:59:43;;;;;;;18.90;5.90;;;5.70;99.90;;;;;;4995130;28;20050;-85
2023/01/09 04:02:08;;;;;;;22.40;6.70;;;5.70;99.90;;;;;;4994917;28;20042;-85
2023/01/09 04:04:34;;;;;;;18.30;5.57;;;5.50;99.90;;;;;;4995091;28;20043;-85
2023/01/09 04:06:59;;;;;;;22.60;6.13;;;5.50;99.90;;;;;;4994901;28;20120;-85
2023/01/09 04:09:25;;;;;;;15.18;5.28;;;5.60;99.90;;;;;;4994884;28;20144;-85
2023/01/09 04:11:51;;;;;;;18.55;5.43;;;5.60;99.90;;;;;;4994933;28;20177;-85
2023/01/09 04:14:16;;;;;;;14.55;6.28;;;5.50;99.90;;;;;;4994781;28;20042;-85
2023/01/09 04:16:42;;;;;;;21.00;4.95;;;5.50;99.90;;;;;;4994883;28;20521;-85
2023/01/09 04:19:07;;;;;;;12.65;5.15;;;5.50;99.90;;;;;;4994985;28;20077;-84
2023/01/09 04:21:33;;;;;;;17.80;6.07;;;5.50;99.90;;;;;;4994977;28;20492;-84
2023/01/09 04:23:59;;;;;;;16.17;4.75;;;5.40;99.90;;;;;;4994486;28;20066;-85
2023/01/09 04:26:24;;;;;;;24.52;5.90;;;5.40;99.90;;;;;;4994553;28;20133;-85
2023/01/09 04:28:50;;;;;;;16.67;5.30;;;5.50;99.90;;;;;;4994550;28;20042;-85
2023/01/09 04:31:16;;;;;;;17.67;6.00;;;5.50;99.90;;;;;;4995068;28;20082;-85
2023/01/09 04:33:41;;;;;;;16.05;6.07;;;5.40;99.90;;;;;;4994217;28;20043;-85
2023/01/09 04:36:07;;;;;;;24.83;6.32;;;5.50;99.90;;;;;;4994588;28;20045;-84
2023/01/09 04:38:33;;;;;;;24.80;6.78;;;5.50;99.90;;;;;;4994562;28;20061;-84
2023/01/09 04:40:59;;;;;;;17.75;7.03;;;5.50;99.90;;;;;;4995162;28;20038;-85
2023/01/09 04:43:24;;;;;;;24.25;6.07;;;5.50;99.90;;;;;;4994248;28;20050;-85
2023/01/09 04:45:50;;;;;;;20.80;6.70;;;5.50;99.90;;;;;;4994456;28;20058;-85
2023/01/09 04:48:16;;;;;;;24.48;7.60;;;5.50;99.90;;;;;;4994026;28;20140;-85
2023/01/09 04:50:42;;;;;;;17.80;6.60;;;5.40;99.90;;;;;;4995292;28;20046;-85
2023/01/09 04:53:08;;;;;;;21.80;7.57;;;5.50;99.90;;;;;;4993894;28;20406;-85
2023/01/09 04:55:33;;;;;;;20.48;6.55;;;5.50;99.90;;;;;;4994152;28;20046;-85
2023/01/09 04:57:59;;;;;;;31.60;9.05;;;5.30;99.90;;;;;;4994051;28;20058;-84
2023/01/09 05:00:25;;;;;;;22.15;8.70;;;5.40;99.90;;;;;;4993971;28;20046;-84
2023/01/09 05:02:50;;;;;;;19.63;7.55;;;5.50;99.90;;;;;;4993928;28;20038;-85
2023/01/09 05:05:16;;;;;;;28.17;8.75;;;5.50;99.90;;;;;;4993897;28;20454;-85
2023/01/09 05:07:42;;;;;;;20.33;8.32;;;5.50;99.90;;;;;;4993873;28;20470;-84
2023/01/09 05:10:08;;;;;;;24.05;8.38;;;5.50;99.90;;;;;;4993965;28;20057;-85
2023/01/09 05:12:35;;;;;;;23.13;8.18;;;5.60;99.90;;;;;;4993639;28;20406;-85
2023/01/09 05:15:02;;;;;;;24.08;9.20;;;5.50;99.90;;;;;;4993675;28;20054;-85
2023/01/09 05:17:28;;;;;;;23.42;7.40;;;5.50;99.90;;;;;;4993736;28;20552;-85
2023/01/09 05:19:54;;;;;;;26.98;7.57;;;5.50;99.90;;;;;;4993742;28;20093;-85
2023/01/09 05:22:20;;;;;;;20.83;8.43;;;5.50;99.90;;;;;;4993322;28;20042;-85
2023/01/09 05:24:45;;;;;;;21.80;8.38;;;5.50;99.90;;;;;;4993373;28;20061;-85
2023/01/09 05:27:11;;;;;;;24.33;8.93;;;5.50;99.90;;;;;;4993668;28;20061;-85
2023/01/09 05:29:37;;;;;;;27.13;8.98;;;5.50;99.90;;;;;;4993437;28;20049;-85
2023/01/09 05:32:03;;;;;;;23.27;8.38;;;5.30;99.90;;;;;;4993187;28;20077;-85
2023/01/09 05:34:28;;;;;;;23.55;8.73;;;5.30;99.90;;;;;;4993475;28;20046;-85
2023/01/09 05:36:54;;;;;;;28.30;8.25;;;5.30;99.90;;;;;;4993509;28;20042;-85
2023/01/09 05:39:20;;;;;;;23.05;10.07;;;5.40;99.90;;;;;;4993561;28;20465;-85
2023/01/09 05:41:46;;;;;;;25.90;8.82;;;5.30;99.90;;;;;;4993520;28;20443;-85
2023/01/09 05:44:11;;;;;;;28.20;8.88;;;5.30;99.90;;;;;;4993390;28;20394;-85
2023/01/09 05:46:37;;;;;;;21.90;9.38;;;5.20;99.90;;;;;;4993463;28;20050;-86
2023/01/09 05:49:03;;;;;;;23.88;8.70;;;5.20;99.90;;;;;;4993334;28;20053;-85
2023/01/09 05:51:30;;;;;;;26.45;8.07;;;5.30;99.90;;;;;;4993352;28;20046;-85
2023/01/09 05:53:57;;;;;;;18.80;8.20;;;5.40;99.90;;;;;;4992257;28;20057;-85
2023/01/09 05:56:22;;;;;;;27.17;9.18;;;5.40;99.90;;;;;;4993163;28;20046;-85
2023/01/09 05:58:48;;;;;;;30.08;9.15;;;5.40;99.90;;;;;;4993072;28;20082;-85
2023/01/09 06:01:14;;;;;;;29.00;10.65;;;5.30;99.90;;;;;;4994287;28;20121;-85
2023/01/09 06:03:39;;;;;;;26.80;10.30;;;5.30;99.90;;;;;;4992912;28;20201;-85
2023/01/09 06:06:05;;;;;;;30.15;12.27;;;5.50;99.90;;;;;;4993192;28;20046;-85
2023/01/09 06:08:31;;;;;;;32.92;12.60;;;5.50;99.90;;;;;;4994238;28;20046;-85
2023/01/09 06:10:57;;;;;;;30.10;11.07;;;5.40;99.90;;;;;;4992960;28;20034;-85
2023/01/09 06:13:22;;;;;;;30.48;11.27;;;5.40;99.90;;;;;;4993290;28;20061;-85
2023/01/09 06:15:48;;;;;;;33.63;13.18;;;5.60;99.90;;;;;;4993041;28;20042;-85
2023/01/09 06:18:14;;;;;;;35.97;14.63;;;5.60;99.90;;;;;;4992681;28;20490;-85
2023/01/09 06:20:40;;;;;;;39.67;12.90;;;5.70;99.90;;;;;;4993102;28;20092;-85
2023/01/09 06:23:05;;;;;;;34.63;12.93;;;5.70;99.90;;;;;;4992827;28;20050;-85
2023/01/09 06:25:31;;;;;;;34.70;13.75;;;5.60;99.90;;;;;;4992878;28;20044;-85
2023/01/09 06:27:57;;;;;;;37.30;14.10;;;5.70;99.90;;;;;;4993080;28;20459;-85
2023/01/09 06:30:22;;;;;;;44.50;15.85;;;5.60;99.90;;;;;;4992683;28;20391;-85
2023/01/09 06:32:49;;;;;;;41.40;14.70;;;5.60;99.90;;;;;;4992515;28;20085;-85
2023/01/09 06:35:19;;;;;;;40.20;14.70;;;5.80;99.90;;;;;;4992844;28;20129;-85
2023/01/09 06:37:46;;;;;;;39.33;14.52;;;5.80;99.90;;;;;;4992957;28;20057;-85
2023/01/09 06:40:13;;;;;;;38.72;16.58;;;5.70;99.90;;;;;;4992508;28;20049;-85
2023/01/09 06:42:42;;;;;;;41.67;17.05;;;5.80;99.90;;;;;;4992791;28;20042;-85
2023/01/09 06:45:09;;;;;;;49.45;17.58;;;5.70;99.90;;;;;;4992748;28;20118;-85
2023/01/09 06:47:35;;;;;;;41.20;16.00;;;5.70;99.90;;;;;;4992849;28;20146;-85
2023/01/09 06:50:00;;;;;;;47.30;17.58;;;5.80;99.90;;;;;;4992816;28;20554;-85
2023/01/09 06:52:26;;;;;;;50.88;19.05;;;5.80;99.90;;;;;;4992764;28;20538;-85
2023/01/09 06:54:51;;;;;;;42.42;18.13;;;5.80;99.90;;;;;;4992553;28;20054;-85
2023/01/09 06:57:17;;;;;;;59.08;20.20;;;5.70;99.90;;;;;;4992370;28;20042;-85
2023/01/09 06:59:43;;;;;;;51.97;18.75;;;5.70;99.90;;;;;;4992634;28;20050;-85
2023/01/09 07:02:17;;;;;;;48.42;19.15;;;5.80;99.90;;;;;;4993627;28;20046;-85
2023/01/09 07:04:44;;;;;;;65.78;22.98;;;5.70;99.90;;;;;;4993621;28;20039;-85
2023/01/09 07:07:09;;;;;;;48.92;18.70;;;5.80;99.90;;;;;;4996397;28;20038;-85
2023/01/09 07:09:35;;;;;;;65.03;21.52;;;5.80;99.90;;;;;;4996041;28;20160;-85
2023/01/09 07:12:01;;;;;;;69.78;23.05;;;5.70;99.90;;;;;;4996141;28;20043;-85
2023/01/09 07:14:26;;;;;;;54.85;21.80;;;5.80;99.90;;;;;;4995714;28;20054;-85
2023/01/09 07:16:52;;;;;;;56.25;21.98;;;5.70;99.90;;;;;;4995877;28;20401;-86
2023/01/09 07:19:17;;;;;;;54.72;20.33;;;5.70;99.90;;;;;;4996115;28;20052;-85
2023/01/09 07:21:43;;;;;;;59.20;22.00;;;5.90;99.90;;;;;;4995809;28;20034;-86
2023/01/09 07:24:09;;;;;;;57.78;21.73;;;5.80;99.90;;;;;;4996580;28;20104;-86
2023/01/09 07:26:34;;;;;;;60.95;21.77;;;5.70;99.90;;;;;;4995702;28;20088;-86
2023/01/09 07:29:00;;;;;;;56.05;23.52;;;5.70;99.90;;;;;;4996070;28;20047;-87
2023/01/09 07:31:26;;;;;;;57.00;23.50;;;5.70;99.90;;;;;;4996140;28;20173;-85
2023/01/09 07:33:51;;;;;;;56.30;22.30;;;5.90;99.90;;;;;;4995631;28;20042;-85
2023/01/09 07:36:17;;;;;;;61.47;23.70;;;5.80;99.90;;;;;;4995818;28;20042;-85
2023/01/09 07:38:43;;;;;;;56.95;23.58;;;5.80;99.90;;;;;;4996071;28;20105;-87
2023/01/09 07:41:08;;;;;;;59.38;23.27;;;5.80;99.90;;;;;;4996180;28;20553;-87
2023/01/09 07:43:35;;;;;;;58.88;23.02;;;5.80;99.90;;;;;;4995594;28;20038;-87
2023/01/09 07:46:01;;;;;;;56.58;23.60;;;5.80;99.90;;;;;;4995240;28;20494;-85
2023/01/09 07:48:26;;;;;;;57.05;23.20;;;5.80;99.90;;;;;;4995214;28;20054;-86
2023/01/09 07:50:52;;;;;;;60.75;23.25;;;5.70;99.90;;;;;;4996466;28;20140;-86
2023/01/09 07:53:18;;;;;;;53.95;22.48;;;5.80;99.90;;;;;;4995117;28;20050;-86
2023/01/09 07:55:43;;;;;;;56.88;21.65;;;5.70;99.90;;;;;;4994502;28;20494;-86
2023/01/09 07:58:09;;;;;;;58.60;23.13;;;5.70;99.90;;;;;;4995107;28;20497;-87
2023/01/09 08:00:34;;;;;;;56.58;19.75;;;5.80;99.90;;;;;;4995963;28;20542;-87
2023/01/09 08:03:00;;;;;;;55.88;21.77;;;5.80;99.90;;;;;;4995506;28;20096;-86
2023/01/09 08:05:26;;;;;;;48.33;19.88;;;5.80;99.90;;;;;;4996797;28;20154;-87
2023/01/09 08:07:51;;;;;;;55.42;20.60;;;5.80;99.90;;;;;;4995710;28;20058;-84
2023/01/09 08:10:18;;;;;;;56.60;20.35;;;5.80;99.90;;;;;;4994740;28;20062;-85
2023/01/09 08:12:44;;;;;;;54.45;20.00;;;5.90;99.90;;;;;;4994903;28;20103;-85
2023/01/09 08:15:10;;;;;;;55.53;20.63;;;5.70;99.90;;;;;;4994826;28;20057;-85
2023/01/09 08:17:36;;;;;;;45.00;18.42;;;5.70;99.90;;;;;;4994015;28;20046;-90
2023/01/09 08:20:02;;;;;;;54.72;20.92;;;5.70;99.90;;;;;;5004213;28;20104;-84
2023/01/09 08:22:28;;;;;;;47.58;19.10;;;5.70;99.90;;;;;;4995100;28;20506;-85
2023/01/09 08:24:53;;;;;;;56.15;21.20;;;5.70;99.90;;;;;;4993990;28;20047;-84
2023/01/09 08:27:19;;;;;;;48.67;18.45;;;5.80;99.90;;;;;;4994009;28;20089;-84
2023/01/09 08:29:44;;;;;;;50.20;18.50;;;5.70;99.90;;;;;;4994488;28;20078;-87
2023/01/09 08:32:10;;;;;;;54.15;19.00;;;5.90;99.90;;;;;;4994346;28;20406;-87
2023/01/09 08:34:36;;;;;;;54.78;18.15;;;5.80;99.90;;;;;;4994436;28;20105;-85
2023/01/09 08:37:01;;;;;;;52.83;18.13;;;5.80;99.90;;;;;;4994060;28;20565;-87
2023/01/09 08:39:27;;;;;;;50.53;19.77;;;5.80;99.90;;;;;;4995372;28;20059;-90
2023/01/09 08:47:22;;;;;;;55.67;18.17;;;5.70;99.90;;;;;;4993775;28;20082;-87
2023/01/09 08:49:48;;;;;;;50.47;18.45;;;5.80;99.90;;;;;;4993756;28;20046;-86
2023/01/09 08:52:14;;;;;;;47.90;16.70;;;5.80;99.90;;;;;;4993810;28;20100;-87
2023/01/09 08:54:40;;;;;;;35.85;14.55;;;5.70;99.90;;;;;;4993836;28;20119;-85
2023/01/09 08:57:06;;;;;;;39.30;15.25;;;5.80;99.90;;;;;;5012467;28;20132;-86
2023/01/09 08:59:33;;;;;;;29.55;11.90;;;5.70;99.90;;;;;;5023419;28;20504;-87
2023/01/09 09:01:59;;;;;;;43.80;16.17;;;5.90;99.90;;;;;;5013481;28;20064;-87
2023/01/09 09:04:24;;;;;;;37.47;14.93;;;5.80;99.90;;;;;;5013145;28;20397;-88
2023/01/09 09:06:50;;;;;;;41.70;15.10;;;5.80;99.90;;;;;;5012992;28;20053;-86
2023/01/09 09:09:16;;;;;;;39.88;14.82;;;5.80;99.90;;;;;;5013033;28;20042;-85
2023/01/09 09:11:41;;;;;;;36.25;14.10;;;5.80;99.90;;;;;;5012841;28;20049;-86
2023/01/09 09:16:52;;;;;;;48.55;16.30;;;5.80;99.90;;;;;;5012842;28;20521;-86
2023/01/09 09:19:17;;;;;;;43.03;17.10;;;5.60;99.90;;;;;;5014306;28;20065;-85
2023/01/09 09:21:43;;;;;;;35.05;13.80;;;5.70;99.90;;;;;;5007133;28;20406;-84
2023/01/09 09:24:09;;;;;;;35.55;14.02;;;5.70;99.90;;;;;;5013800;28;20511;-86
2023/01/09 09:26:35;;;;;;;41.13;16.08;;;5.70;99.90;;;;;;5012689;28;20588;-85
2023/01/09 09:29:00;;;;;;;40.20;14.60;;;5.80;99.90;;;;;;5012566;28;20049;-87
2023/01/09 09:31:26;;;;;;;41.45;13.43;;;5.70;99.90;;;;;;5012592;28;20133;-83
2023/01/09 09:33:52;;;;;;;35.50;12.85;;;5.70;99.90;;;;;;5011460;28;20050;-84
2023/01/09 09:36:17;;;;;;;38.67;14.98;;;5.80;99.90;;;;;;5013398;28;20045;-84
2023/01/09 09:38:43;;;;;;;37.38;13.90;;;5.80;99.90;;;;;;5012804;28;20096;-83
2023/01/09 09:44:43;;;;;;;41.00;14.93;;;5.90;99.90;;;;;;5012094;28;20053;-83
2023/01/09 09:47:40;;;;;;;34.30;13.52;;;5.90;99.90;;;;;;5012751;28;20084;-84
2023/01/09 09:50:15;;;;;;;38.67;13.68;;;5.90;99.90;;;;;;5013861;28;20497;-82
2023/01/09 09:52:58;;;;;;;41.00;15.32;;;5.90;99.90;;;;;;5013889;28;20078;-84
2023/01/09 09:55:31;;;;;;;43.40;14.38;;;6.00;99.90;;;;;;5013908;28;20405;-84
2023/01/09 09:58:00;;;;;;;39.45;14.32;;;5.90;99.90;;;;;;5012546;28;20042;-84
2023/01/09 10:00:27;;;;;;;33.03;13.40;;;6.00;99.90;;;;;;5012686;28;20061;-84
2023/01/09 10:03:06;;;;;;;37.75;14.13;;;6.00;99.90;;;;;;5012591;28;20128;-84
2023/01/09 10:05:36;;;;;;;32.58;12.82;;;6.10;99.90;;;;;;5012382;28;20049;-84
2023/01/09 10:08:18;;;;;;;38.20;13.57;;;6.00;99.90;;;;;;5012501;28;20132;-84
2023/01/09 10:10:51;;;;;;;34.83;13.77;;;6.10;99.90;;;;;;5012275;28;20494;-84
2023/01/09 10:16:24;;;;;;;37.17;12.35;;;6.00;99.90;;;;;;5013655;28;20053;-84
2023/01/09 10:19:18;;;;;;;39.58;11.77;;;6.20;99.90;;;;;;5012507;28;20132;-84
2023/01/09 10:21:59;;;;;;;38.03;12.98;;;6.10;99.90;;;;;;5012167;28;20518;-84
2023/01/09 10:24:36;;;;;;;34.88;12.73;;;6.30;99.90;;;;;;5012014;28;20520;-84
2023/01/09 10:27:40;;;;;;;37.15;13.93;;;6.20;99.90;;;;;;5012638;28;20050;-84
2023/01/09 10:30:31;;;;;;;32.42;12.40;;;6.30;99.90;;;;;;4959019;28;20058;-84
2023/01/09 10:33:16;;;;;;;37.60;13.02;;;6.30;99.90;;;;;;5012370;28;20041;-84
2023/01/09 10:36:10;;;;;;;38.45;13.65;;;6.30;99.90;;;;;;5012243;28;20405;-84
2023/01/09 10:38:40;;;;;;;32.08;11.90;;;6.20;99.90;;;;;;5012319;28;20056;-84
2023/01/09 10:41:11;;;;;;;36.50;13.63;;;6.20;99.90;;;;;;5015356;28;20464;-84
2023/01/09 10:44:17;;;;;;;42.60;12.65;;;6.40;99.90;;;;;;5016174;28;20050;-84
2023/01/09 10:46:50;;;;;;;34.42;12.32;;;6.30;99.90;;;;;;5007681;28;20120;-84
2023/01/09 10:49:18;;;;;;;38.28;11.38;;;6.40;99.90;;;;;;5015831;28;20128;-84
2023/01/09 10:52:05;;;;;;;29.83;11.90;;;6.40;99.90;;;;;;5015734;28;20048;-84
2023/01/09 10:54:31;;;;;;;35.53;11.70;;;6.40;99.90;;;;;;5016963;28;20451;-84
2023/01/09 10:57:15;;;;;;;35.72;12.77;;;6.50;99.90;;;;;;5015895;28;20440;-84
2023/01/09 10:59:41;;;;;;;36.20;12.85;;;6.50;99.90;;;;;;5017136;28;20045;-84
2023/01/09 11:02:31;;;;;;;34.75;12.32;;;6.50;99.90;;;;;;5015831;28;20072;-84
2023/01/09 11:04:56;;;;;;;38.22;11.98;;;6.50;99.90;;;;;;5015774;28;20077;-85
2023/01/09 11:07:33;;;;;;;41.33;13.30;;;6.60;99.90;;;;;;5015775;28;20049;-84
2023/01/09 11:10:02;;;;;;;32.20;12.20;;;6.60;99.90;;;;;;5015659;28;20054;-84
2023/01/09 11:12:33;;;;;;;32.22;12.30;;;6.70;99.90;;;;;;5015292;28;20057;-84
2023/01/09 11:15:27;;;;;;;31.65;12.70;;;6.70;99.90;;;;;;5016832;28;20125;-85
2023/01/09 11:17:56;;;;;;;37.78;13.75;;;6.60;99.90;;;;;;5007790;28;20064;-85
2023/01/09 11:20:21;;;;;;;33.85;12.45;;;6.80;99.90;;;;;;5015273;28;20053;-84
2023/01/09 11:22:53;;;;;;;37.05;11.90;;;6.70;99.90;;;;;;5015040;28;20049;-84
2023/01/09 11:25:22;;;;;;;31.97;12.03;;;6.80;99.90;;;;;;5016562;28;20500;-84
2023/01/09 11:28:03;;;;;;;32.95;12.15;;;6.90;99.90;;;;;;5014989;28;20129;-84
2023/01/09 11:30:53;;;;;;;31.80;11.93;;;6.90;99.90;;;;;;5016584;28;20560;-85
2023/01/09 11:33:23;;;;;;;33.00;12.18;;;7.00;99.90;;;;;;5015050;28;20081;-85
2023/01/09 11:36:06;;;;;;;29.23;11.93;;;7.00;99.90;;;;;;5015264;28;20060;-84
2023/01/09 11:38:45;;;;;;;31.30;11.10;;;7.00;99.90;;;;;;5015617;28;20095;-85
2023/01/09 11:41:16;;;;;;;29.80;11.05;;;7.10;99.90;;;;;;5015102;28;20540;-84
2023/01/09 11:43:45;;;;;;;26.48;10.40;;;7.20;99.90;;;;;;5015063;28;20053;-85
2023/01/09 11:46:36;;;;;;;35.50;12.07;;;7.10;99.90;;;;;;5014716;28;20045;-85
2023/01/09 11:49:05;;;;;;;40.50;12.85;;;7.20;99.90;;;;;;5014691;28;20077;-85
2023/01/09 11:51:33;;;;;;;27.73;10.98;;;7.20;99.90;;;;;;5013693;28;20049;-84
2023/01/09 11:54:20;;;;;;;31.92;11.52;;;7.20;99.90;;;;;;5014782;28;20046;-85
2023/01/09 11:56:46;;;;;;;35.95;11.82;;;7.20;99.90;;;;;;5014835;28;20056;-85
2023/01/09 11:59:15;;;;;;;35.55;11.90;;;7.10;99.90;;;;;;5015976;28;20049;-84
2023/01/09 12:02:15;;;;;;;35.78;13.20;;;7.20;99.90;;;;;;5014489;28;20034;-85
2023/01/09 12:04:50;;;;;;;36.38;12.85;;;7.30;99.90;;;;;;5014887;28;20052;-85
2023/01/09 12:08:01;;;;;;;34.20;12.88;;;7.30;99.90;;;;;;5014606;28;20054;-85
2023/01/09 12:10:30;;;;;;;32.35;10.50;;;7.20;99.90;;;;;;4970765;28;20076;-85
2023/01/09 12:13:17;;;;;;;31.40;11.40;;;7.20;99.90;;;;;;5014219;28;20129;-85
2023/01/09 12:16:10;;;;;;;32.03;12.55;;;7.20;99.90;;;;;;5014518;28;20049;-85
2023/01/09 12:19:16;;;;;;;30.95;11.18;;;7.30;99.90;;;;;;5014261;28;20056;-85
2023/01/09 12:22:11;;;;;;;35.35;12.63;;;7.30;99.90;;;;;;5014231;28;20104;-85
2023/01/09 12:25:05;;;;;;;34.13;11.80;;;7.20;99.90;;;;;;5013961;28;20108;-85
2023/01/09 12:27:57;;;;;;;30.95;11.43;;;7.30;99.90;;;;;;5014343;28;20050;-85
2023/01/09 12:30:42;;;;;;;38.85;11.35;;;7.20;99.90;;;;;;5014252;28;20046;-84
2023/01/09 12:33:07;;;;;;;34.53;12.82;;;7.30;99.90;;;;;;5013855;28;20049;-85
2023/01/09 12:35:33;;;;;;;35.15;12.27;;;7.30;99.90;;;;;;5014097;28;20050;-85
2023/01/09 12:38:36;;;;;;;36.58;12.32;;;7.30;99.90;;;;;;5013795;28;20406;-85
2023/01/09 12:41:29;;;;;;;38.30;12.85;;;7.30;99.90;;;;;;5014044;28;20136;-85
2023/01/09 12:44:01;;;;;;;33.58;12.00;;;7.30;99.90;;;;;;5014055;28;20054;-85
2023/01/09 12:46:47;;;;;;;37.08;12.48;;;7.40;99.90;;;;;;5013657;28;20531;-84
2023/01/09 12:49:31;;;;;;;37.70;13.82;;;7.40;99.90;;;;;;5013606;28;20397;-84
2023/01/09 12:52:29;;;;;;;42.88;12.85;;;7.30;99.90;;;;;;5013858;28;20038;-84
2023/01/09 12:55:01;;;;;;;34.53;12.70;;;7.40;99.90;;;;;;5008771;28;20498;-85
2023/01/09 12:57:31;;;;;;;38.72;12.80;;;7.40;99.90;;;;;;5014879;28;20080;-85
2023/01/09 13:00:03;;;;;;;37.83;12.93;;;7.40;99.90;;;;;;5013773;28;20053;-86
2023/01/09 13:02:51;;;;;;;36.88;14.35;;;7.50;99.90;;;;;;5012956;28;20053;-84
2023/01/09 13:05:31;;;;;;;38.00;12.63;;;7.50;99.90;;;;;;5013484;28;20398;-84
2023/01/09 13:08:06;;;;;;;37.05;12.30;;;7.60;99.90;;;;;;5013284;28;20058;-84
2023/01/09 13:10:42;;;;;;;39.70;13.75;;;7.60;99.90;;;;;;5013608;28;20446;-85
2023/01/09 13:13:23;;;;;;;37.95;12.13;;;7.60;99.90;;;;;;5013094;28;20046;-85
2023/01/09 13:15:56;;;;;;;39.00;14.05;;;7.70;99.90;;;;;;5013157;28;20042;-85
2023/01/09 13:18:26;;;;;;;36.92;13.77;;;7.80;99.90;;;;;;5013439;28;20374;-84